createdAt,value
2022-12-17T00:01:48.843Z,42.92
2022-12-17T00:04:33.967Z,43.20
2022-12-17T00:07:19.171Z,43.56
2022-12-17T00:10:04.451Z,43.15
2022-12-17T00:12:49.900Z,42.99
2022-12-17T00:15:34.953Z,42.85
2022-12-17T00:18:26.270Z,42.99
2022-12-17T00:21:15.405Z,42.93
2022-12-17T00:24:01.184Z,42.95
2022-12-17T00:26:46.587Z,43.16
2022-12-17T00:29:31.787Z,42.88
2022-12-17T00:32:17.191Z,43.06
2022-12-17T00:35:02.179Z,43.06
2022-12-17T00:37:47.505Z,43.09
2022-12-17T00:40:32.693Z,42.99
2022-12-17T00:43:27.484Z,43.01
2022-12-17T00:46:12.719Z,42.84
2022-12-17T00:48:57.961Z,43.09
2022-12-17T00:51:43.199Z,42.99
2022-12-17T00:54:28.395Z,43.05
2022-12-17T00:57:13.633Z,43.07
2022-12-17T00:59:58.866Z,43.09
2022-12-17T01:02:44.264Z,42.81
2022-12-17T01:05:29.614Z,42.70
2022-12-17T01:08:14.967Z,42.83
2022-12-17T01:11:00.073Z,42.62
2022-12-17T01:13:45.099Z,42.74
2022-12-17T01:16:31.903Z,42.78
2022-12-17T01:19:17.636Z,42.82
2022-12-17T01:22:03.871Z,42.66
2022-12-17T01:24:48.793Z,42.79
2022-12-17T01:27:33.915Z,42.58
2022-12-17T01:30:19.140Z,42.99
2022-12-17T01:33:04.127Z,42.77
2022-12-17T01:35:49.320Z,42.96
2022-12-17T01:38:37.034Z,43.04
2022-12-17T01:41:23.125Z,42.93
2022-12-17T01:44:08.403Z,43.13
2022-12-17T01:46:59.428Z,43.02
2022-12-17T01:49:44.632Z,42.94
2022-12-17T01:52:32.899Z,42.82
2022-12-17T01:55:18.371Z,43.19
2022-12-17T01:58:03.523Z,42.64
2022-12-17T02:00:48.819Z,42.59
2022-12-17T02:03:35.443Z,42.13
2022-12-17T02:06:30.981Z,42.70
2022-12-17T02:09:19.538Z,42.80
2022-12-17T02:12:29.085Z,42.56
2022-12-17T02:15:24.933Z,42.77
2022-12-17T02:18:15.246Z,42.87
2022-12-17T02:21:07.748Z,42.77
2022-12-17T02:23:56.539Z,42.66
2022-12-17T02:26:54.051Z,42.87
2022-12-17T02:29:39.854Z,42.76
2022-12-17T02:32:25.007Z,42.74
2022-12-17T02:35:10.441Z,42.63
2022-12-17T02:37:55.625Z,42.57
2022-12-17T02:40:41.386Z,42.96
2022-12-17T02:43:26.983Z,42.74
2022-12-17T02:46:12.285Z,42.74
2022-12-17T02:48:57.570Z,42.53
2022-12-17T02:51:50.706Z,42.70
2022-12-17T02:54:35.899Z,42.73
2022-12-17T02:57:21.273Z,42.13
2022-12-17T03:00:06.417Z,42.45
2022-12-17T03:02:51.799Z,42.50
2022-12-17T03:05:44.935Z,42.48
2022-12-17T03:08:30.804Z,42.46
2022-12-17T03:11:15.685Z,42.41
2022-12-17T03:14:00.807Z,42.34
2022-12-17T03:16:46.173Z,42.55
2022-12-17T03:19:31.022Z,42.61
2022-12-17T03:22:15.958Z,42.36
2022-12-17T03:25:01.143Z,42.66
2022-12-17T03:27:46.463Z,42.66
2022-12-17T03:30:35.752Z,42.54
2022-12-17T03:33:21.301Z,42.42
2022-12-17T03:36:06.586Z,42.40
2022-12-17T03:38:56.174Z,42.49
2022-12-17T03:41:41.351Z,42.36
2022-12-17T03:44:26.440Z,42.42
2022-12-17T03:47:11.550Z,42.37
2022-12-17T03:49:56.818Z,42.17
2022-12-17T03:52:42.107Z,42.22
2022-12-17T03:55:27.273Z,42.22
2022-12-17T03:58:12.460Z,42.38
2022-12-17T04:00:57.768Z,42.33
2022-12-17T04:03:42.993Z,42.54
2022-12-17T04:06:28.349Z,42.30
2022-12-17T04:09:13.329Z,42.21
2022-12-17T04:11:58.918Z,42.38
2022-12-17T04:14:43.947Z,42.44
2022-12-17T04:17:29.172Z,42.52
2022-12-17T04:20:14.333Z,42.30
2022-12-17T04:22:59.658Z,42.45
2022-12-17T04:25:44.817Z,42.31
2022-12-17T04:28:32.826Z,42.38
2022-12-17T04:31:18.075Z,42.33
2022-12-17T04:34:03.283Z,42.24
2022-12-17T04:36:48.538Z,42.05
2022-12-17T04:39:33.744Z,41.77
2022-12-17T04:42:18.739Z,41.75
2022-12-17T04:45:03.947Z,41.98
2022-12-17T04:47:49.232Z,42.09
2022-12-17T04:50:34.527Z,42.17
2022-12-17T04:53:23.310Z,42.30
2022-12-17T04:56:08.545Z,42.13
2022-12-17T04:58:53.718Z,42.20
2022-12-17T05:01:38.975Z,41.79
2022-12-17T05:04:24.344Z,42.64
2022-12-17T05:07:09.527Z,42.28
2022-12-17T05:09:54.745Z,42.17
2022-12-17T05:12:40.009Z,42.54
2022-12-17T05:15:25.676Z,42.33
2022-12-17T05:18:10.930Z,42.24
2022-12-17T05:20:56.090Z,42.24
2022-12-17T05:23:41.385Z,42.21
2022-12-17T05:26:32.643Z,41.85
2022-12-17T05:29:17.964Z,42.09
2022-12-17T05:32:03.018Z,42.00
2022-12-17T05:34:48.463Z,41.96
2022-12-17T05:37:33.635Z,41.85
2022-12-17T05:40:18.991Z,41.82
2022-12-17T05:43:21.068Z,41.95
2022-12-17T05:46:06.416Z,42.06
2022-12-17T05:48:51.635Z,42.29
2022-12-17T05:51:38.841Z,41.85
2022-12-17T05:54:24.554Z,41.86
2022-12-17T05:57:09.656Z,41.94
2022-12-17T05:59:54.915Z,42.11
2022-12-17T06:02:40.290Z,42.12
2022-12-17T06:05:26.208Z,41.95
2022-12-17T06:08:11.409Z,41.97
2022-12-17T06:10:56.839Z,41.76
2022-12-17T06:13:42.018Z,41.42
2022-12-17T06:16:27.285Z,41.60
2022-12-17T06:19:12.395Z,41.82
2022-12-17T06:21:57.589Z,42.54
2022-12-17T06:24:45.896Z,41.82
2022-12-17T06:27:31.515Z,41.61
2022-12-17T06:30:18.815Z,42.16
2022-12-17T06:33:24.177Z,42.07
2022-12-17T06:36:11.035Z,42.14
2022-12-17T06:38:56.093Z,42.12
2022-12-17T06:41:41.180Z,41.96
2022-12-17T06:44:26.384Z,41.98
2022-12-17T06:47:11.700Z,42.22
2022-12-17T06:50:01.083Z,42.39
2022-12-17T06:52:46.496Z,42.23
2022-12-17T06:55:31.888Z,42.30
2022-12-17T06:58:17.967Z,42.39
2022-12-17T07:01:03.682Z,42.24
2022-12-17T07:03:48.789Z,42.23
2022-12-17T07:06:34.015Z,42.45
2022-12-17T07:09:19.184Z,42.84
2022-12-17T07:12:04.504Z,42.26
2022-12-17T07:14:49.789Z,39.06
2022-12-17T07:17:34.905Z,35.28
2022-12-17T07:20:19.950Z,33.05
2022-12-17T07:23:05.315Z,31.41
2022-12-17T07:25:50.429Z,30.04
2022-12-17T07:28:37.312Z,28.75
2022-12-17T07:31:22.462Z,28.36
2022-12-17T07:34:15.329Z,27.94
2022-12-17T07:37:00.566Z,27.20
2022-12-17T07:39:45.943Z,27.25
2022-12-17T07:42:31.131Z,26.98
2022-12-17T07:45:16.191Z,27.02
2022-12-17T07:48:01.376Z,26.70
2022-12-17T07:50:46.620Z,28.33
2022-12-17T07:53:31.708Z,29.49
2022-12-17T07:56:16.818Z,31.09
2022-12-17T07:59:01.867Z,31.68
2022-12-17T08:01:47.005Z,32.07
2022-12-17T08:04:32.337Z,32.59
2022-12-17T08:07:17.511Z,33.08
2022-12-17T08:10:02.825Z,33.89
2022-12-17T08:12:47.853Z,34.46
2022-12-17T08:15:33.169Z,34.71
2022-12-17T08:18:26.116Z,35.15
2022-12-17T08:21:11.681Z,35.26
2022-12-17T08:23:56.786Z,35.15
2022-12-17T08:26:47.281Z,35.85
2022-12-17T08:29:33.071Z,36.51
2022-12-17T08:32:18.036Z,36.12
2022-12-17T08:35:03.284Z,36.43
2022-12-17T08:37:49.312Z,36.53
2022-12-17T08:40:34.484Z,36.72
2022-12-17T08:43:19.825Z,36.70
2022-12-17T08:46:08.488Z,36.80
2022-12-17T08:48:53.694Z,36.84
2022-12-17T08:51:38.768Z,36.88
2022-12-17T08:54:23.804Z,37.08
2022-12-17T08:57:09.059Z,34.22
2022-12-17T08:59:58.657Z,30.90
2022-12-17T09:02:43.906Z,30.68
2022-12-17T09:05:29.366Z,32.07
2022-12-17T09:08:21.567Z,33.13
2022-12-17T09:11:06.758Z,33.56
2022-12-17T09:13:52.204Z,34.03
2022-12-17T09:16:37.887Z,34.61
2022-12-17T09:19:23.079Z,35.01
2022-12-17T09:22:08.333Z,35.16
2022-12-17T09:24:53.498Z,35.61
2022-12-17T09:27:38.891Z,35.68
2022-12-17T09:30:24.548Z,35.81
2022-12-17T09:33:09.694Z,35.60
2022-12-17T09:35:58.452Z,36.72
2022-12-17T09:38:43.480Z,36.61
2022-12-17T09:41:45.426Z,37.05
2022-12-17T09:44:50.573Z,37.46
2022-12-17T09:48:07.036Z,37.47
2022-12-17T09:50:52.338Z,37.37
2022-12-17T09:53:41.567Z,37.87
2022-12-17T09:56:28.241Z,37.98
2022-12-17T09:59:17.934Z,37.89
2022-12-17T10:02:03.500Z,37.95
2022-12-17T10:04:53.434Z,37.90
2022-12-17T10:07:43.269Z,37.55
2022-12-17T10:10:37.158Z,37.49
2022-12-17T10:13:30.815Z,37.65
2022-12-17T10:16:16.011Z,37.42
2022-12-17T10:19:01.270Z,37.72
2022-12-17T10:21:47.496Z,37.55
2022-12-17T10:24:32.928Z,37.55
2022-12-17T10:27:18.266Z,37.73
2022-12-17T10:30:04.064Z,37.79
2022-12-17T10:32:49.261Z,37.71
2022-12-17T10:35:53.197Z,37.82
2022-12-17T10:38:46.242Z,37.93
2022-12-17T10:41:44.042Z,37.87
2022-12-17T10:44:41.877Z,37.90
2022-12-17T10:47:34.618Z,38.00
2022-12-17T10:50:20.881Z,37.99
2022-12-17T10:53:06.589Z,37.94
2022-12-17T10:55:52.471Z,38.31
2022-12-17T10:58:40.440Z,38.13
2022-12-17T11:01:28.037Z,38.35
2022-12-17T11:04:16.835Z,38.23
2022-12-17T11:07:04.739Z,38.24
2022-12-17T11:10:09.453Z,38.24
2022-12-17T11:13:03.282Z,38.31
2022-12-17T11:16:11.077Z,38.32
2022-12-17T11:19:17.721Z,38.32
2022-12-17T11:22:14.587Z,38.41
2022-12-17T11:25:05.464Z,38.62
2022-12-17T11:27:53.177Z,38.48
2022-12-17T11:30:38.322Z,38.56
2022-12-17T11:33:37.771Z,38.50
2022-12-17T11:36:39.186Z,38.28
2022-12-17T11:39:39.932Z,38.45
2022-12-17T11:42:37.539Z,38.28
2022-12-17T11:45:28.851Z,38.43
2022-12-17T11:48:28.673Z,38.45
2022-12-17T11:51:17.472Z,38.23
2022-12-17T11:54:26.698Z,38.43
2022-12-17T11:57:21.125Z,38.38
2022-12-17T12:00:20.808Z,38.57
2022-12-17T12:03:12.688Z,38.31
2022-12-17T12:06:01.068Z,38.35
2022-12-17T12:08:51.688Z,38.53
2022-12-17T12:11:51.703Z,37.01
2022-12-17T12:14:49.203Z,32.01
2022-12-17T12:17:37.523Z,30.03
2022-12-17T12:20:35.189Z,31.90
2022-12-17T12:23:26.844Z,33.27
2022-12-17T12:26:26.717Z,33.88
2022-12-17T12:29:24.315Z,34.65
2022-12-17T12:32:40.179Z,35.20
2022-12-17T12:35:26.867Z,35.67
2022-12-17T12:38:12.197Z,35.94
2022-12-17T12:41:01.333Z,35.89
2022-12-17T12:44:07.099Z,36.07
2022-12-17T12:47:02.551Z,36.29
2022-12-17T12:50:11.087Z,36.50
2022-12-17T12:52:56.344Z,36.76
2022-12-17T12:55:41.718Z,36.74
2022-12-17T12:58:52.704Z,37.07
2022-12-17T13:01:38.685Z,37.04
2022-12-17T13:04:48.140Z,37.13
2022-12-17T13:07:26.508Z,37.30
2022-12-17T13:09:54.992Z,34.65
2022-12-17T13:12:28.362Z,30.00
2022-12-17T13:14:59.414Z,28.39
2022-12-17T13:17:32.539Z,29.07
2022-12-17T13:20:22.675Z,30.16
2022-12-17T13:22:53.868Z,31.22
2022-12-17T13:25:23.639Z,32.09
2022-12-17T13:27:50.315Z,32.65
2022-12-17T13:30:36.615Z,33.03
2022-12-17T13:33:22.144Z,32.51
2022-12-17T13:35:52.901Z,33.33
2022-12-17T13:38:44.738Z,33.55
2022-12-17T13:41:16.303Z,34.01
2022-12-17T13:43:49.565Z,34.33
2022-12-17T13:46:46.743Z,34.44
2022-12-17T13:49:28.368Z,34.62
2022-12-17T13:52:11.593Z,34.90
2022-12-17T13:54:38.569Z,35.11
2022-12-17T13:57:23.000Z,35.15
2022-12-17T13:59:53.731Z,35.14
2022-12-17T14:02:34.051Z,35.46
2022-12-17T14:05:07.468Z,35.54
2022-12-17T14:07:35.536Z,35.89
2022-12-17T14:10:02.442Z,35.73
2022-12-17T14:12:30.099Z,35.92
2022-12-17T14:15:00.161Z,36.17
2022-12-17T14:17:42.500Z,36.22
2022-12-17T14:20:13.375Z,36.33
2022-12-17T14:22:44.967Z,36.42
2022-12-17T14:25:22.740Z,36.36
2022-12-17T14:28:02.492Z,36.42
2022-12-17T14:31:02.581Z,36.71
2022-12-17T14:33:36.889Z,36.63
2022-12-17T14:36:17.529Z,36.54
2022-12-17T14:38:58.454Z,37.03
2022-12-17T14:41:43.686Z,36.85
2022-12-17T14:44:21.564Z,37.00
2022-12-17T14:46:48.392Z,36.84
2022-12-17T14:49:18.264Z,36.71
2022-12-17T14:51:45.128Z,37.09
2022-12-17T14:54:19.555Z,37.02
2022-12-17T14:56:47.513Z,37.14
2022-12-17T14:59:24.088Z,37.15
2022-12-17T15:01:55.947Z,36.91
2022-12-17T15:04:23.236Z,37.10
2022-12-17T15:06:49.913Z,37.17
2022-12-17T15:09:16.717Z,37.12
2022-12-17T15:11:43.251Z,36.40
2022-12-17T15:14:10.466Z,37.04
2022-12-17T15:16:37.475Z,36.78
2022-12-17T15:19:04.502Z,37.03
2022-12-17T15:21:31.341Z,36.94
2022-12-17T15:23:58.163Z,36.69
2022-12-17T15:26:24.882Z,36.91
2022-12-17T15:28:52.124Z,36.79
2022-12-17T15:31:24.492Z,37.08
2022-12-17T15:33:52.889Z,37.03
2022-12-17T15:36:19.576Z,37.22
2022-12-17T15:38:46.472Z,36.90
2022-12-17T15:41:31.692Z,37.11
2022-12-17T15:43:58.382Z,37.26
2022-12-17T15:46:25.299Z,37.15
2022-12-17T15:48:51.885Z,37.32
2022-12-17T15:51:21.016Z,37.20
2022-12-17T15:53:48.308Z,37.10
2022-12-17T15:56:22.849Z,37.21
2022-12-17T15:58:49.490Z,37.13
2022-12-17T16:01:16.121Z,37.18
2022-12-17T16:03:42.923Z,36.97
2022-12-17T16:06:09.612Z,37.34
2022-12-17T16:08:38.876Z,37.19
2022-12-17T16:11:09.391Z,37.21
2022-12-17T16:13:37.015Z,37.08
2022-12-17T16:16:04.542Z,37.01
2022-12-17T16:18:31.507Z,37.02
2022-12-17T16:21:08.136Z,37.06
2022-12-17T16:23:34.865Z,37.00
2022-12-17T16:26:02.322Z,36.93
2022-12-17T16:28:28.968Z,36.83
2022-12-17T16:31:00.351Z,37.12
2022-12-17T16:33:31.133Z,37.24
2022-12-17T16:36:02.100Z,37.12
2022-12-17T16:38:28.770Z,37.06
2022-12-17T16:40:56.631Z,37.21
2022-12-17T16:43:23.951Z,37.21
2022-12-17T16:45:51.134Z,37.35
2022-12-17T16:48:19.300Z,37.17
2022-12-17T16:50:46.159Z,37.30
2022-12-17T16:53:13.006Z,37.04
2022-12-17T16:55:46.613Z,37.27
2022-12-17T16:58:16.970Z,37.63
2022-12-17T17:06:31.833Z,37.47
2022-12-17T17:09:00.212Z,37.13
2022-12-17T17:11:26.820Z,37.42
2022-12-17T17:13:56.980Z,37.11
2022-12-17T17:16:24.386Z,36.89
2022-12-17T17:18:51.477Z,37.24
2022-12-17T17:21:25.242Z,37.16
2022-12-17T17:24:18.512Z,37.15
2022-12-17T17:26:47.561Z,37.00
2022-12-17T17:29:14.137Z,37.07
2022-12-17T17:34:27.272Z,37.09
2022-12-17T17:36:53.837Z,37.41
2022-12-17T17:39:20.370Z,37.14
2022-12-17T17:41:47.018Z,37.25
2022-12-17T17:44:13.994Z,37.43
2022-12-17T17:46:40.550Z,37.21
2022-12-17T17:49:07.646Z,37.26
2022-12-17T17:54:27.639Z,37.46
2022-12-17T17:56:54.209Z,37.44
2022-12-17T17:59:22.811Z,37.18
2022-12-17T18:01:51.996Z,37.29
2022-12-17T18:04:20.503Z,37.35
2022-12-17T18:07:09.088Z,37.03
2022-12-17T18:09:34.072Z,37.09
2022-12-17T18:12:20.634Z,37.18
2022-12-17T18:15:12.590Z,37.35
2022-12-17T18:17:33.709Z,37.14
2022-12-17T18:20:00.376Z,37.16
2022-12-17T18:22:28.406Z,37.26
2022-12-17T18:24:54.898Z,37.62
2022-12-17T18:27:21.467Z,37.41
2022-12-17T18:29:48.092Z,37.14
2022-12-17T18:32:14.677Z,36.44
2022-12-17T18:34:41.331Z,36.65
2022-12-17T18:37:08.015Z,36.78
2022-12-17T18:39:34.629Z,37.00
2022-12-17T18:42:19.969Z,36.94
2022-12-17T18:44:46.514Z,37.18
2022-12-17T18:47:13.117Z,37.26
2022-12-17T18:49:39.661Z,37.07
2022-12-17T18:52:07.022Z,36.54
2022-12-17T18:54:36.129Z,36.71
2022-12-17T18:57:02.929Z,36.91
2022-12-17T18:59:30.291Z,36.75
2022-12-17T19:01:57.140Z,36.90
2022-12-17T19:04:23.889Z,36.84
2022-12-17T19:06:53.792Z,36.94
2022-12-17T19:09:20.252Z,36.94
2022-12-17T19:11:46.901Z,37.23
2022-12-17T19:14:13.524Z,37.23
2022-12-17T19:16:40.132Z,37.73
2022-12-17T19:19:06.675Z,37.13
2022-12-17T19:21:33.839Z,36.93
2022-12-17T19:24:02.149Z,37.06
2022-12-17T19:26:29.096Z,37.00
2022-12-17T19:28:56.271Z,36.86
2022-12-17T19:31:24.330Z,36.97
2022-12-17T19:33:57.120Z,36.92
2022-12-17T19:36:28.306Z,37.10
2022-12-17T19:38:56.825Z,37.04
2022-12-17T19:41:23.491Z,37.16
2022-12-17T19:43:54.994Z,36.92
2022-12-17T19:46:21.735Z,37.05
2022-12-17T19:48:49.273Z,36.91
2022-12-17T19:51:21.885Z,37.02
2022-12-17T19:53:49.059Z,37.00
2022-12-17T19:56:25.854Z,37.07
2022-12-17T19:58:54.229Z,36.99
2022-12-17T20:01:27.678Z,37.04
2022-12-17T20:03:54.563Z,37.18
2022-12-17T20:06:22.506Z,36.94
2022-12-17T20:08:49.076Z,37.01
2022-12-17T20:11:34.355Z,37.16
2022-12-17T20:14:17.519Z,37.15
2022-12-17T20:16:52.130Z,36.85
2022-12-17T20:19:23.612Z,36.90
2022-12-17T20:21:50.276Z,37.06
2022-12-17T20:24:17.029Z,36.95
2022-12-17T20:26:43.875Z,37.33
2022-12-17T20:29:10.578Z,36.74
2022-12-17T20:31:37.466Z,36.77
2022-12-17T20:34:04.685Z,37.01
2022-12-17T20:36:31.319Z,36.76
2022-12-17T20:38:57.949Z,36.59
2022-12-17T20:41:26.119Z,36.70
2022-12-17T20:43:52.950Z,36.85
2022-12-17T20:46:20.052Z,36.85
2022-12-17T20:48:46.756Z,36.98
2022-12-17T20:51:21.958Z,36.72
2022-12-17T20:53:52.472Z,36.95
2022-12-17T20:56:22.552Z,36.89
2022-12-17T20:58:56.226Z,36.81
2022-12-17T21:01:23.812Z,36.70
2022-12-17T21:03:51.180Z,36.86
2022-12-17T21:06:19.805Z,36.70
2022-12-17T21:08:50.173Z,36.58
2022-12-17T21:11:21.284Z,36.92
2022-12-17T21:13:47.826Z,36.58
2022-12-17T21:16:18.276Z,36.90
2022-12-17T21:18:44.861Z,36.95
2022-12-17T21:21:13.965Z,36.91
2022-12-17T21:23:40.729Z,36.86
2022-12-17T21:26:17.436Z,36.83
2022-12-17T21:28:45.381Z,36.77
2022-12-17T21:31:23.568Z,37.11
2022-12-17T21:33:50.984Z,37.03
2022-12-17T21:36:18.913Z,36.90
2022-12-17T21:38:45.580Z,36.67
2022-12-17T21:41:14.079Z,36.61
2022-12-17T21:43:40.806Z,36.81
2022-12-17T21:46:08.042Z,36.43
2022-12-17T21:48:41.367Z,36.65
2022-12-17T21:51:09.791Z,36.74
2022-12-17T21:53:38.802Z,36.75
2022-12-17T21:56:06.765Z,36.77
2022-12-17T21:58:33.620Z,36.78
2022-12-17T22:01:17.016Z,36.61
2022-12-17T22:03:46.461Z,36.72
2022-12-17T22:06:14.875Z,36.85
2022-12-17T22:08:41.994Z,36.74
2022-12-17T22:11:10.303Z,36.58
2022-12-17T22:14:01.806Z,36.60
2022-12-17T22:16:36.792Z,36.79
2022-12-17T22:19:07.636Z,36.54
2022-12-17T22:21:35.163Z,36.89
2022-12-17T22:24:01.812Z,36.71
2022-12-17T22:26:28.494Z,36.76
2022-12-17T22:28:55.165Z,36.88
2022-12-17T22:31:40.577Z,36.81
2022-12-17T22:35:14.506Z,36.92
2022-12-17T22:38:53.840Z,36.60
2022-12-17T22:43:19.355Z,36.75
2022-12-17T22:44:42.606Z,36.62
2022-12-17T22:45:38.282Z,36.62
2022-12-17T22:48:05.495Z,36.50
2022-12-17T22:50:36.079Z,36.46
2022-12-17T22:53:13.781Z,36.64
2022-12-17T22:55:40.737Z,36.10
2022-12-17T22:58:07.639Z,36.44
2022-12-17T23:00:34.994Z,36.59
2022-12-17T23:03:01.729Z,36.52
2022-12-17T23:05:28.764Z,36.66
2022-12-17T23:07:55.425Z,36.66
2022-12-17T23:10:22.013Z,36.68
2022-12-17T23:12:51.507Z,36.58
2022-12-17T23:15:24.663Z,36.31
2022-12-17T23:17:52.316Z,36.78
2022-12-17T23:20:18.966Z,36.54
2022-12-17T23:22:45.556Z,36.67
2022-12-17T23:25:12.155Z,36.72
2022-12-17T23:27:38.702Z,36.71
2022-12-17T23:30:09.160Z,36.69
2022-12-17T23:32:35.798Z,36.82
2022-12-17T23:35:02.413Z,36.83
2022-12-17T23:37:29.129Z,36.81
2022-12-17T23:39:55.824Z,36.84
2022-12-17T23:42:22.389Z,36.74
2022-12-17T23:44:48.967Z,36.93
2022-12-17T23:47:15.496Z,36.79
2022-12-17T23:49:42.153Z,36.42
2022-12-17T23:52:08.859Z,36.42
2022-12-17T23:54:36.029Z,36.41
2022-12-17T23:57:02.657Z,36.51
2022-12-17T23:59:29.188Z,36.37
